CheckWX is a tool to help pilots better visualize weather data.  It is not intended as a substitute for an official pre-flight weather briefing.

04:15:24 UTC

EGLL METAR
London Heathrow Airport
London, United Kingdom
Current

25 mins ago

EGLL 020350Z AUTO 36004KT 330V040 9999 NCD 13/09 Q1021 NOSIG
Observed
Jun-2 @ 03:50 UTC
Wind
  • 360° at 4 KTS
Visibility
10,000+ meters
Flight Rules
VFR
Cloud Levels
  • Clear skies
Temperature
13°C / 55°F
Dewpoint
C / 48°F
Humidity
77%
Altimeter
30.15" Hg
Pressure
1020.92 hPa
Previous

55 mins ago

EGLL 020320Z AUTO 01005KT 9999 NCD 13/09 Q1021
Observed
Jun-2 @ 03:20 UTC
Wind
  • 010° at 5 KTS
Visibility
10,000+ meters
Flight Rules
VFR
Cloud Levels
  • Clear skies
Temperature
13°C / 55°F
Dewpoint
C / 48°F
Humidity
77%
Altimeter
30.15" Hg
Pressure
1020.92 hPa
Previous

1 hour ago

EGLL 020250Z AUTO 36005KT 340V040 9999 NCD 14/09 Q1021 NOSIG
Observed
Jun-2 @ 02:50 UTC
Wind
  • 360° at 5 KTS
Visibility
10,000+ meters
Flight Rules
VFR
Cloud Levels
  • Clear skies
Temperature
14°C / 57°F
Dewpoint
C / 48°F
Humidity
72%
Altimeter
30.15" Hg
Pressure
1020.92 hPa